createdAt,value
2019-05-10T00:00:31.955Z,87.87
2019-05-10T00:01:31.957Z,88.35
2019-05-10T00:02:32.002Z,88.16
2019-05-10T00:03:32.086Z,88.07
2019-05-10T00:04:31.982Z,88.07
2019-05-10T00:05:31.988Z,88.16
2019-05-10T00:06:32.018Z,88.35
2019-05-10T00:07:32.007Z,88.45
2019-05-10T00:08:32.016Z,87.97
2019-05-10T00:09:32.021Z,88.07
2019-05-10T00:10:32.027Z,88.07
2019-05-10T00:11:32.040Z,88.26
2019-05-10T00:12:32.040Z,87.78
2019-05-10T00:13:32.053Z,88.26
2019-05-10T00:14:32.061Z,88.35
2019-05-10T00:15:32.066Z,88.26
2019-05-10T00:16:32.070Z,88.07
2019-05-10T00:17:32.079Z,88.35
2019-05-10T00:18:32.092Z,88.07
2019-05-10T00:19:32.092Z,87.97
2019-05-10T00:20:32.099Z,87.78
2019-05-10T00:21:32.104Z,88.45
2019-05-10T00:22:32.114Z,88.92
2019-05-10T00:23:32.122Z,89.12
2019-05-10T00:24:32.130Z,88.54
2019-05-10T00:25:32.135Z,89.21
2019-05-10T00:26:32.148Z,88.64
2019-05-10T00:27:32.152Z,88.64
2019-05-10T00:28:32.158Z,89.69
2019-05-10T00:29:32.177Z,89.12
2019-05-10T00:30:32.176Z,88.92
2019-05-10T00:31:32.181Z,88.64
2019-05-10T00:32:32.193Z,88.64
2019-05-10T00:33:32.198Z,88.83
2019-05-10T00:34:32.208Z,88.78
2019-05-10T00:35:32.205Z,89.45
2019-05-10T00:36:32.223Z,88.73
2019-05-10T00:37:32.221Z,88.73
2019-05-10T00:38:32.230Z,88.50
2019-05-10T00:39:32.235Z,88.50
2019-05-10T00:40:32.244Z,88.73
2019-05-10T00:41:32.254Z,88.83
2019-05-10T00:42:32.260Z,89.02
2019-05-10T00:43:32.266Z,89.31
2019-05-10T00:44:32.267Z,89.40
2019-05-10T00:45:32.281Z,89.40
2019-05-10T00:46:32.292Z,89.31
2019-05-10T00:47:32.301Z,89.40
2019-05-10T00:48:32.302Z,89.31
2019-05-10T00:49:32.320Z,88.83
2019-05-10T00:50:32.316Z,89.69
2019-05-10T00:51:32.331Z,88.83
2019-05-10T00:52:32.335Z,88.73
2019-05-10T00:53:32.367Z,89.69
2019-05-10T00:54:32.343Z,89.40
2019-05-10T00:55:32.355Z,88.92
2019-05-10T00:56:32.361Z,88.64
2019-05-10T00:57:32.368Z,89.50
2019-05-10T00:58:32.373Z,89.45
2019-05-10T00:59:32.383Z,89.36
2019-05-10T01:00:32.391Z,88.78
2019-05-10T01:01:32.397Z,88.92
2019-05-10T01:02:32.410Z,89.40
2019-05-10T01:03:32.407Z,88.64
2019-05-10T01:04:32.419Z,89.40
2019-05-10T01:05:32.426Z,88.73
2019-05-10T01:06:32.434Z,89.12
2019-05-10T01:07:32.439Z,88.73
2019-05-10T01:08:32.452Z,88.73
2019-05-10T01:09:32.454Z,88.83
2019-05-10T01:10:32.458Z,89.31
2019-05-10T01:11:32.469Z,88.83
2019-05-10T01:12:32.479Z,88.54
2019-05-10T01:13:32.485Z,88.35
2019-05-10T01:14:32.500Z,88.16
2019-05-10T01:15:32.502Z,88.45
2019-05-10T01:16:32.506Z,87.97
2019-05-10T01:17:32.515Z,88.26
2019-05-10T01:18:32.522Z,87.78
2019-05-10T01:19:32.528Z,87.49
2019-05-10T01:20:32.535Z,87.40
2019-05-10T01:21:32.545Z,87.40
2019-05-10T01:22:32.552Z,87.78
2019-05-10T01:23:32.556Z,87.87
2019-05-10T01:24:32.565Z,87.59
2019-05-10T01:25:35.560Z,88.35
2019-05-10T01:26:32.579Z,87.74
2019-05-10T01:27:32.586Z,88.07
2019-05-10T01:28:32.599Z,88.73
2019-05-10T01:29:32.599Z,88.45
2019-05-10T01:30:32.609Z,88.31
2019-05-10T01:31:32.612Z,88.02
2019-05-10T01:32:32.623Z,87.78
2019-05-10T01:33:32.629Z,88.16
2019-05-10T01:34:32.640Z,88.54
2019-05-10T01:35:32.646Z,88.07
2019-05-10T01:36:32.664Z,88.45
2019-05-10T01:37:32.660Z,88.16
2019-05-10T01:38:32.671Z,88.26
2019-05-10T01:39:32.673Z,88.45
2019-05-10T01:40:32.679Z,88.16
2019-05-10T01:41:32.698Z,87.78
2019-05-10T01:42:32.696Z,87.87
2019-05-10T01:43:32.704Z,88.16
2019-05-10T01:44:32.712Z,88.64
2019-05-10T01:45:32.716Z,88.26
2019-05-10T01:46:32.727Z,88.26
2019-05-10T01:47:32.733Z,88.92
2019-05-10T01:48:32.739Z,89.12
2019-05-10T01:49:32.743Z,88.73
2019-05-10T01:50:32.752Z,88.83
2019-05-10T01:51:32.766Z,88.83
2019-05-10T01:52:32.765Z,88.73
2019-05-10T01:53:32.778Z,88.64
2019-05-10T01:54:32.781Z,89.40
2019-05-10T01:55:32.791Z,89.12
2019-05-10T01:56:32.799Z,89.59
2019-05-10T01:57:32.804Z,89.02
2019-05-10T01:58:32.813Z,89.21
2019-05-10T01:59:32.823Z,89.69
2019-05-10T02:00:32.826Z,89.50
2019-05-10T02:01:32.834Z,89.21
2019-05-10T02:02:32.846Z,89.50
2019-05-10T02:03:32.852Z,89.50
2019-05-10T02:04:32.856Z,89.31
2019-05-10T02:05:32.876Z,89.21
2019-05-10T02:06:32.871Z,88.73
2019-05-10T02:07:32.880Z,88.73
2019-05-10T02:08:32.888Z,89.02
2019-05-10T02:09:33.558Z,88.92
2019-05-10T02:10:32.898Z,88.45
2019-05-10T02:11:32.907Z,88.45
2019-05-10T02:12:32.915Z,88.45
2019-05-10T02:13:32.923Z,88.07
2019-05-10T02:14:32.936Z,88.26
2019-05-10T02:15:32.936Z,88.16
2019-05-10T02:16:32.944Z,88.45
2019-05-10T02:17:32.982Z,88.26
2019-05-10T02:18:32.962Z,89.21
2019-05-10T02:19:32.977Z,88.35
2019-05-10T02:20:32.978Z,88.35
2019-05-10T02:21:32.991Z,89.12
2019-05-10T02:22:32.995Z,89.12
2019-05-10T02:23:32.997Z,87.97
2019-05-10T02:24:33.005Z,88.07
2019-05-10T02:25:33.014Z,88.07
2019-05-10T02:26:33.018Z,88.07
2019-05-10T02:27:33.025Z,88.16
2019-05-10T02:28:33.035Z,88.07
2019-05-10T02:29:33.052Z,88.45
2019-05-10T02:30:33.063Z,88.26
2019-05-10T02:31:33.058Z,88.54
2019-05-10T02:32:33.072Z,87.97
2019-05-10T02:33:33.071Z,88.16
2019-05-10T02:34:33.074Z,88.45
2019-05-10T02:35:33.088Z,88.35
2019-05-10T02:36:33.097Z,88.45
2019-05-10T02:37:33.100Z,88.83
2019-05-10T02:38:33.106Z,88.64
2019-05-10T02:39:33.121Z,88.92
2019-05-10T02:40:33.125Z,89.40
2019-05-10T02:41:33.136Z,89.54
2019-05-10T02:42:33.137Z,89.54
2019-05-10T02:43:33.146Z,89.97
2019-05-10T02:44:33.151Z,89.45
2019-05-10T02:45:33.296Z,89.36
2019-05-10T02:46:33.166Z,89.40
2019-05-10T02:47:33.178Z,89.40
2019-05-10T02:48:33.184Z,89.40
2019-05-10T02:49:33.194Z,89.40
2019-05-10T02:50:33.195Z,89.12
2019-05-10T02:51:33.203Z,89.36
2019-05-10T02:52:33.211Z,89.31
2019-05-10T02:53:33.219Z,89.21
2019-05-10T02:54:33.227Z,89.74
2019-05-10T02:55:33.292Z,89.83
2019-05-10T02:56:33.239Z,89.26
2019-05-10T02:57:33.249Z,89.36
2019-05-10T02:58:33.257Z,89.36
2019-05-10T02:59:33.259Z,89.83
2019-05-10T03:00:33.276Z,89.54
2019-05-10T03:01:33.274Z,89.36
2019-05-10T03:02:33.284Z,89.17
2019-05-10T03:03:33.293Z,90.12
2019-05-10T03:04:33.300Z,89.93
2019-05-10T03:05:33.308Z,89.64
2019-05-10T03:06:33.318Z,89.74
2019-05-10T03:07:33.320Z,90.31
2019-05-10T03:08:33.328Z,90.12
2019-05-10T03:09:33.399Z,90.22
2019-05-10T03:10:33.358Z,90.03
2019-05-10T03:11:33.350Z,89.83
2019-05-10T03:12:33.358Z,90.17
2019-05-10T03:13:33.366Z,90.08
2019-05-10T03:14:33.373Z,90.17
2019-05-10T03:15:33.376Z,89.50
2019-05-10T03:16:33.389Z,89.98
2019-05-10T03:17:33.397Z,90.26
2019-05-10T03:18:33.402Z,90.17
2019-05-10T03:19:33.407Z,90.55
2019-05-10T03:20:33.416Z,90.84
2019-05-10T03:21:33.421Z,90.64
2019-05-10T03:22:33.564Z,90.45
2019-05-10T03:23:33.437Z,91.03
2019-05-10T03:24:33.447Z,91.13
2019-05-10T03:25:33.451Z,91.22
2019-05-10T03:26:49.582Z,91.13
2019-05-10T03:27:33.467Z,91.31
2019-05-10T03:28:33.477Z,91.41
2019-05-10T03:29:33.481Z,91.03
2019-05-10T03:30:33.483Z,91.74
2019-05-10T03:31:33.495Z,91.74
2019-05-10T03:32:33.511Z,91.74
2019-05-10T03:33:33.549Z,91.64
2019-05-10T03:34:33.583Z,91.74
2019-05-10T03:35:33.538Z,91.46
2019-05-10T03:36:33.539Z,91.27
2019-05-10T03:37:33.534Z,91.27
2019-05-10T03:38:33.545Z,91.07
2019-05-10T03:39:33.554Z,91.17
2019-05-10T03:40:33.568Z,91.07
2019-05-10T03:41:33.569Z,91.74
2019-05-10T03:42:33.570Z,91.27
2019-05-10T03:43:33.584Z,91.64
2019-05-10T03:44:33.594Z,91.74
2019-05-10T03:45:33.596Z,91.55
2019-05-10T03:46:33.603Z,91.64
2019-05-10T03:47:33.694Z,92.03
2019-05-10T03:48:33.620Z,91.64
2019-05-10T03:49:33.626Z,91.93
2019-05-10T03:50:33.631Z,91.64
2019-05-10T03:51:33.637Z,91.17
2019-05-10T03:52:33.645Z,91.27
2019-05-10T03:53:33.654Z,91.46
2019-05-10T03:54:33.663Z,91.36
2019-05-10T03:55:33.669Z,91.17
2019-05-10T03:56:33.677Z,91.55
2019-05-10T03:57:33.683Z,91.55
2019-05-10T03:58:33.689Z,91.17
2019-05-10T03:59:33.700Z,91.07
2019-05-10T04:00:33.763Z,91.55
2019-05-10T04:01:33.712Z,91.83
2019-05-10T04:02:33.719Z,91.64
2019-05-10T04:03:33.723Z,92.03
2019-05-10T04:04:33.734Z,91.74
2019-05-10T04:05:33.741Z,91.55
2019-05-10T04:06:33.744Z,91.64
2019-05-10T04:07:33.757Z,92.88
2019-05-10T04:08:33.767Z,92.41
2019-05-10T04:09:33.769Z,91.93
2019-05-10T04:10:33.797Z,92.79
2019-05-10T04:11:33.784Z,92.41
2019-05-10T04:12:33.798Z,92.50
2019-05-10T04:13:33.797Z,91.93
2019-05-10T04:14:33.812Z,92.03
2019-05-10T04:15:33.812Z,92.32
2019-05-10T04:16:33.821Z,92.32
2019-05-10T04:17:33.831Z,92.32
2019-05-10T04:18:33.836Z,92.12
2019-05-10T04:19:33.840Z,92.12
2019-05-10T04:20:33.854Z,91.55
2019-05-10T04:21:33.858Z,91.55
2019-05-10T04:22:33.869Z,91.78
2019-05-10T04:23:33.883Z,91.50
2019-05-10T04:24:36.443Z,91.31
2019-05-10T04:25:33.887Z,91.41
2019-05-10T04:26:33.889Z,91.41
2019-05-10T04:27:33.906Z,91.50
2019-05-10T04:28:33.907Z,91.50
2019-05-10T04:29:33.921Z,91.21
2019-05-10T04:30:33.925Z,91.60
2019-05-10T04:31:33.928Z,91.88
2019-05-10T04:32:33.938Z,91.78
2019-05-10T04:33:33.946Z,91.98
2019-05-10T04:34:33.955Z,91.78
2019-05-10T04:35:33.957Z,91.78
2019-05-10T04:36:33.964Z,91.88
2019-05-10T04:37:33.984Z,91.69
2019-05-10T04:38:33.983Z,92.07
2019-05-10T04:39:33.990Z,92.07
2019-05-10T04:40:33.996Z,92.26
2019-05-10T04:41:34.012Z,92.36
2019-05-10T04:42:34.012Z,92.36
2019-05-10T04:43:34.017Z,92.83
2019-05-10T04:44:34.027Z,92.93
2019-05-10T04:45:34.039Z,92.65
2019-05-10T04:46:34.041Z,92.65
2019-05-10T04:47:34.052Z,92.83
2019-05-10T04:48:34.056Z,92.74
2019-05-10T04:49:34.060Z,92.65
2019-05-10T04:50:34.072Z,92.83
2019-05-10T04:51:34.078Z,92.93
2019-05-10T04:52:34.088Z,92.74
2019-05-10T04:53:34.095Z,92.36
2019-05-10T04:54:34.104Z,92.07
2019-05-10T04:55:34.107Z,91.78
2019-05-10T04:56:34.120Z,91.78
2019-05-10T04:57:49.161Z,91.02
2019-05-10T04:58:34.131Z,91.31
2019-05-10T04:59:34.135Z,91.26
2019-05-10T05:00:34.144Z,91.36
2019-05-10T05:01:34.161Z,91.64
2019-05-10T05:02:34.160Z,91.64
2019-05-10T05:03:34.165Z,90.78
2019-05-10T05:04:34.178Z,90.88
2019-05-10T05:05:34.191Z,90.78
2019-05-10T05:06:34.187Z,90.40
2019-05-10T05:07:34.198Z,90.21
2019-05-10T05:08:34.207Z,90.21
2019-05-10T05:09:34.215Z,89.64
2019-05-10T05:10:34.223Z,89.83
2019-05-10T05:11:34.224Z,90.11
2019-05-10T05:12:34.235Z,89.64
2019-05-10T05:13:34.242Z,90.31
2019-05-10T05:14:34.250Z,89.54
2019-05-10T05:15:34.258Z,90.11
2019-05-10T05:16:34.264Z,90.21
2019-05-10T05:17:34.272Z,89.25
2019-05-10T05:18:34.276Z,89.73
2019-05-10T05:19:34.287Z,90.21
2019-05-10T05:20:34.298Z,90.31
2019-05-10T05:21:34.301Z,90.21
2019-05-10T05:22:34.314Z,90.21
2019-05-10T05:23:34.314Z,90.11
2019-05-10T05:24:34.324Z,89.83
2019-05-10T05:25:35.275Z,90.11
2019-05-10T05:26:34.338Z,89.25
2019-05-10T05:27:34.348Z,89.54
2019-05-10T05:28:34.358Z,89.73
2019-05-10T05:29:34.361Z,89.45
2019-05-10T05:30:38.322Z,88.87
2019-05-10T05:31:34.380Z,89.35
2019-05-10T05:32:38.455Z,88.97
2019-05-10T05:33:34.389Z,88.68
2019-05-10T05:34:34.398Z,88.92
2019-05-10T05:35:34.409Z,88.73
2019-05-10T05:36:34.414Z,89.01
2019-05-10T05:37:34.428Z,89.20
2019-05-10T05:38:34.430Z,89.11
2019-05-10T05:39:34.439Z,89.20
2019-05-10T05:40:34.445Z,88.54
2019-05-10T05:41:47.769Z,87.73
2019-05-10T05:42:34.456Z,87.01
2019-05-10T05:43:34.471Z,87.44
2019-05-10T05:44:34.478Z,88.63
2019-05-10T05:45:35.647Z,88.25
2019-05-10T05:46:34.492Z,88.82
2019-05-10T05:47:37.466Z,88.44
2019-05-10T05:48:40.325Z,88.25
2019-05-10T05:49:34.515Z,88.54
2019-05-10T05:50:34.524Z,88.44
2019-05-10T05:51:34.530Z,88.25
2019-05-10T05:52:34.536Z,88.44
2019-05-10T05:53:36.015Z,88.44
2019-05-10T05:54:34.553Z,88.54
2019-05-10T05:55:34.560Z,88.63
2019-05-10T05:56:34.563Z,88.63
2019-05-10T05:57:34.577Z,87.29
2019-05-10T05:58:37.953Z,87.48
2019-05-10T05:59:34.590Z,88.06
2019-05-10T06:00:37.726Z,87.87
2019-05-10T06:01:34.608Z,87.77
2019-05-10T06:02:43.924Z,87.39
2019-05-10T06:03:34.626Z,87.48
2019-05-10T06:04:34.630Z,87.29
2019-05-10T06:05:37.221Z,88.06
2019-05-10T06:06:34.644Z,87.68
2019-05-10T06:07:37.891Z,87.87
2019-05-10T06:08:34.660Z,87.96
2019-05-10T06:09:37.869Z,86.91
2019-05-10T06:10:34.673Z,86.53
2019-05-10T06:11:35.797Z,86.82
2019-05-10T06:12:34.693Z,86.29
2019-05-10T06:13:34.694Z,86.47
2019-05-10T06:14:34.710Z,86.86
2019-05-10T06:15:34.714Z,86.57
2019-05-10T06:16:34.722Z,86.47
2019-05-10T06:17:34.728Z,85.90
2019-05-10T06:18:34.734Z,85.71
2019-05-10T06:19:34.742Z,85.24
2019-05-10T06:20:38.098Z,85.81
2019-05-10T06:21:34.762Z,85.71
2019-05-10T06:22:38.180Z,84.85
2019-05-10T06:23:35.492Z,84.66
2019-05-10T06:24:34.781Z,84.47
2019-05-10T06:25:40.088Z,84.56
2019-05-10T06:26:34.798Z,84.76
2019-05-10T06:27:35.301Z,83.33
2019-05-10T06:28:57.681Z,83.51
2019-05-10T06:29:34.821Z,83.99
2019-05-10T06:30:34.832Z,82.94
2019-05-10T06:31:34.843Z,83.84
2019-05-10T06:32:34.847Z,84.03
2019-05-10T06:33:34.869Z,84.03
2019-05-10T06:34:38.883Z,84.03
2019-05-10T06:35:34.869Z,82.98
2019-05-10T06:36:34.873Z,82.98
2019-05-10T06:37:34.883Z,82.75
2019-05-10T06:38:34.896Z,82.56
2019-05-10T06:39:34.902Z,82.98
2019-05-10T06:40:43.895Z,82.60
2019-05-10T06:41:34.918Z,83.17
2019-05-10T06:42:36.187Z,82.89
2019-05-10T06:43:34.943Z,82.60
2019-05-10T06:44:34.941Z,83.46
2019-05-10T06:45:34.956Z,82.89
2019-05-10T06:46:34.956Z,82.41
2019-05-10T06:47:34.965Z,83.17
2019-05-10T06:48:34.977Z,82.98
2019-05-10T06:49:34.979Z,83.27
2019-05-10T06:50:34.996Z,82.31
2019-05-10T06:51:35.005Z,82.31
2019-05-10T06:52:35.006Z,81.16
2019-05-10T06:53:35.016Z,81.26
2019-05-10T06:54:35.020Z,81.16
2019-05-10T06:55:35.032Z,80.30
2019-05-10T06:56:35.046Z,80.98
2019-05-10T06:57:35.047Z,80.79
2019-05-10T06:58:36.310Z,81.45
2019-05-10T06:59:35.062Z,81.93
2019-05-10T07:00:38.081Z,82.60
2019-05-10T07:01:38.322Z,82.22
2019-05-10T07:02:35.086Z,82.17
2019-05-10T07:03:35.092Z,82.60
2019-05-10T07:04:40.346Z,82.64
2019-05-10T07:05:35.111Z,82.35
2019-05-10T07:06:35.127Z,82.74
2019-05-10T07:07:43.721Z,83.60
2019-05-10T07:08:43.698Z,83.31
2019-05-10T07:10:00.480Z,81.74
2019-05-10T07:10:35.151Z,81.45
2019-05-10T07:11:35.161Z,80.79
2019-05-10T07:12:35.227Z,81.55
2019-05-10T07:13:40.103Z,80.69
2019-05-10T07:14:35.185Z,81.07
2019-05-10T07:15:35.769Z,81.84
2019-05-10T07:16:35.202Z,82.60
2019-05-10T07:17:40.720Z,82.41
2019-05-10T07:18:35.213Z,82.22
2019-05-10T07:19:41.939Z,82.70
2019-05-10T07:20:35.232Z,82.60
2019-05-10T07:21:38.908Z,82.31
2019-05-10T07:22:35.246Z,82.22
2019-05-10T07:23:39.115Z,82.03
2019-05-10T07:24:35.261Z,81.84
2019-05-10T07:25:37.687Z,82.12
2019-05-10T07:26:35.285Z,81.93
2019-05-10T07:27:36.674Z,82.60
2019-05-10T07:28:35.298Z,82.51
2019-05-10T07:29:41.938Z,81.36
2019-05-10T07:30:35.319Z,80.98
2019-05-10T07:31:35.318Z,80.98
2019-05-10T07:32:35.350Z,81.26
2019-05-10T07:33:37.255Z,80.59
2019-05-10T07:34:35.346Z,80.59
2019-05-10T07:35:36.964Z,81.16
2019-05-10T07:36:35.365Z,81.84
2019-05-10T07:37:35.374Z,81.02
2019-05-10T07:38:35.378Z,81.36
2019-05-10T07:39:35.390Z,80.79
2019-05-10T07:40:35.398Z,81.07
2019-05-10T07:41:35.401Z,81.11
2019-05-10T07:42:39.946Z,81.40
2019-05-10T07:43:35.420Z,81.02
2019-05-10T07:44:35.427Z,80.44
2019-05-10T07:45:35.439Z,80.54
2019-05-10T07:46:40.181Z,81.21
2019-05-10T07:47:35.451Z,81.49
2019-05-10T07:48:35.464Z,81.02
2019-05-10T07:49:35.486Z,80.25
2019-05-10T07:50:35.474Z,80.82
2019-05-10T07:51:35.485Z,81.40
2019-05-10T07:52:36.622Z,80.63
2019-05-10T07:53:35.504Z,81.02
2019-05-10T07:54:37.501Z,79.96
2019-05-10T07:55:35.520Z,81.54
2019-05-10T07:56:39.112Z,79.77
2019-05-10T07:57:35.535Z,79.58
2019-05-10T07:58:38.390Z,78.81
2019-05-10T07:59:48.667Z,79.20
2019-05-10T08:00:38.024Z,80.16
2019-05-10T08:01:35.571Z,79.87
2019-05-10T08:02:35.573Z,80.54
2019-05-10T08:03:40.995Z,80.82
2019-05-10T08:04:35.593Z,80.25
2019-05-10T08:05:35.604Z,80.54
2019-05-10T08:06:43.449Z,80.25
2019-05-10T08:07:35.620Z,79.87
2019-05-10T08:08:35.623Z,80.25
2019-05-10T08:09:37.214Z,80.06
2019-05-10T08:10:35.642Z,81.02
2019-05-10T08:11:35.654Z,80.69
2019-05-10T08:12:43.719Z,80.88
2019-05-10T08:13:35.666Z,81.26
2019-05-10T08:14:35.678Z,81.36
2019-05-10T08:15:35.685Z,81.16
2019-05-10T08:16:35.692Z,81.36
2019-05-10T08:17:43.277Z,81.36
2019-05-10T08:18:35.711Z,82.31
2019-05-10T08:19:37.765Z,81.36
2019-05-10T08:20:46.558Z,82.22
2019-05-10T08:21:35.737Z,82.46
2019-05-10T08:22:41.352Z,82.56
2019-05-10T08:23:35.749Z,83.33
2019-05-10T08:24:35.761Z,83.04
2019-05-10T08:25:40.994Z,84.47
2019-05-10T08:26:35.780Z,84.47
2019-05-10T08:27:35.785Z,84.76
2019-05-10T08:28:37.928Z,85.71
2019-05-10T08:29:35.803Z,85.81
2019-05-10T08:30:35.808Z,85.52
2019-05-10T08:31:40.630Z,86.10
2019-05-10T08:32:35.825Z,85.71
2019-05-10T08:33:35.835Z,85.81
2019-05-10T08:34:39.417Z,87.34
2019-05-10T08:35:38.248Z,87.34
2019-05-10T08:36:37.144Z,86.57
2019-05-10T08:37:37.755Z,85.62
2019-05-10T08:38:39.721Z,85.42
2019-05-10T08:39:45.361Z,86.10
2019-05-10T08:40:37.948Z,86.10
2019-05-10T08:41:35.898Z,86.38
2019-05-10T08:42:45.328Z,86.10
2019-05-10T08:43:38.817Z,85.57
2019-05-10T08:44:35.919Z,85.38
2019-05-10T08:45:38.653Z,85.18
2019-05-10T08:46:41.157Z,85.94
2019-05-10T08:47:35.946Z,85.85
2019-05-10T08:48:38.071Z,85.47
2019-05-10T08:49:46.065Z,86.33
2019-05-10T08:50:49.766Z,87.09
2019-05-10T08:51:43.810Z,87.09
2019-05-10T08:52:36.004Z,87.29
2019-05-10T08:53:35.994Z,87.57
2019-05-10T08:54:36.000Z,86.76
2019-05-10T08:55:36.008Z,85.85
2019-05-10T08:56:36.024Z,85.61
2019-05-10T08:59:26.441Z,84.13
2019-05-10T09:00:37.107Z,84.32
2019-05-10T09:01:26.533Z,84.89
2019-05-10T09:02:23.095Z,84.89
2019-05-10T09:03:18.888Z,85.85
2019-05-10T09:04:18.774Z,85.47
2019-05-10T09:05:22.663Z,84.99
2019-05-10T09:06:18.792Z,84.89
2019-05-10T09:07:18.797Z,85.75
2019-05-10T09:08:19.887Z,85.75
2019-05-10T09:09:18.829Z,86.47
2019-05-10T09:10:18.822Z,86.86
2019-05-10T09:11:18.836Z,87.62
2019-05-10T09:12:18.839Z,88.29
2019-05-10T09:13:18.841Z,88.58
2019-05-10T09:14:20.207Z,88.39
2019-05-10T09:15:18.866Z,88.87
2019-05-10T09:16:18.871Z,88.87
2019-05-10T09:17:23.715Z,90.01
2019-05-10T09:18:18.887Z,90.49
2019-05-10T09:19:24.276Z,90.49
2019-05-10T09:20:21.888Z,90.30
2019-05-10T09:21:18.910Z,91.06
2019-05-10T09:22:25.994Z,91.45
2019-05-10T09:23:22.236Z,91.74
2019-05-10T09:24:18.935Z,91.35
2019-05-10T09:25:20.153Z,91.45
2019-05-10T09:26:18.949Z,91.93
2019-05-10T09:27:18.961Z,91.97
2019-05-10T09:28:18.962Z,92.30
2019-05-10T09:29:18.985Z,92.64
2019-05-10T09:30:18.984Z,93.21
2019-05-10T09:31:22.835Z,93.02
2019-05-10T09:32:23.394Z,92.83
2019-05-10T09:33:19.003Z,92.35
2019-05-10T09:34:23.776Z,90.88
2019-05-10T09:35:19.027Z,91.35
2019-05-10T09:36:23.122Z,91.78
2019-05-10T09:37:19.040Z,89.53
2019-05-10T09:38:19.047Z,88.58
2019-05-10T09:40:55.947Z,89.06
2019-05-10T09:41:52.771Z,88.87
2019-05-10T09:42:52.305Z,87.82
2019-05-10T09:43:53.599Z,87.91
2019-05-10T09:44:52.669Z,88.39
2019-05-10T09:45:52.838Z,87.43
2019-05-10T09:46:52.461Z,88.39
2019-05-10T09:47:52.910Z,88.15
2019-05-10T09:48:54.564Z,88.77
2019-05-10T09:49:56.578Z,88.92
2019-05-10T09:50:55.097Z,89.20
2019-05-10T09:51:52.698Z,88.82
2019-05-10T09:52:50.804Z,88.44
2019-05-10T09:53:50.823Z,88.34
2019-05-10T09:54:50.822Z,89.83
2019-05-10T09:55:55.712Z,89.06
2019-05-10T09:56:52.180Z,89.35
2019-05-10T09:57:50.841Z,89.54
2019-05-10T09:58:50.849Z,90.02
2019-05-10T09:59:50.857Z,90.50
2019-05-10T10:00:50.864Z,90.50
2019-05-10T10:01:50.873Z,90.78
2019-05-10T10:02:56.057Z,90.59
2019-05-10T10:03:50.893Z,90.02
2019-05-10T10:04:50.893Z,91.16
2019-05-10T10:05:55.311Z,91.36
2019-05-10T10:06:52.592Z,90.88
2019-05-10T10:07:50.926Z,91.16
2019-05-10T10:08:53.334Z,90.88
2019-05-10T10:09:50.933Z,91.16
2019-05-10T10:10:50.942Z,90.50
2019-05-10T10:11:57.777Z,90.59
2019-05-10T10:12:50.955Z,91.07
2019-05-10T10:13:58.945Z,90.69
2019-05-10T10:14:50.971Z,90.88
2019-05-10T10:15:52.481Z,90.78
2019-05-10T10:16:58.540Z,90.31
2019-05-10T10:17:51.018Z,90.02
2019-05-10T10:18:51.006Z,90.21
2019-05-10T10:19:51.025Z,90.69
2019-05-10T10:20:51.020Z,90.50
2019-05-10T10:21:51.034Z,90.69
2019-05-10T10:22:54.507Z,90.69
2019-05-10T10:23:51.041Z,90.21
2019-05-10T10:24:54.688Z,89.35
2019-05-10T10:25:51.059Z,89.92
2019-05-10T10:26:53.982Z,90.11
2019-05-10T10:27:51.076Z,90.11
2019-05-10T10:28:55.310Z,90.31
2019-05-10T10:29:51.101Z,90.69
2019-05-10T10:30:58.819Z,91.26
2019-05-10T10:31:55.803Z,91.07
2019-05-10T10:32:51.110Z,90.21
2019-05-10T10:33:58.254Z,90.21
2019-05-10T10:34:54.580Z,89.73
2019-05-10T10:35:56.497Z,90.02
2019-05-10T10:36:51.143Z,89.35
2019-05-10T10:37:51.148Z,89.25
2019-05-10T10:38:51.158Z,89.83
2019-05-10T10:39:54.469Z,90.31
2019-05-10T10:40:51.172Z,90.59
2019-05-10T10:41:52.165Z,90.40
2019-05-10T10:42:51.192Z,90.25
2019-05-10T10:43:51.196Z,90.73
2019-05-10T10:44:51.203Z,90.16
2019-05-10T10:45:51.207Z,89.59
2019-05-10T10:46:51.212Z,89.97
2019-05-10T10:47:51.235Z,89.87
2019-05-10T10:48:51.460Z,90.30
2019-05-10T10:49:51.245Z,88.87
2019-05-10T10:50:55.718Z,88.77
2019-05-10T10:51:51.257Z,87.09
2019-05-10T10:52:51.263Z,87.00
2019-05-10T10:53:54.448Z,87.09
2019-05-10T10:54:51.278Z,86.80
2019-05-10T10:55:54.621Z,87.38
2019-05-10T10:56:51.298Z,86.52
2019-05-10T10:57:51.307Z,86.33
2019-05-10T10:58:51.314Z,85.41
2019-05-10T10:59:51.317Z,86.37
2019-05-10T11:00:51.330Z,86.37
2019-05-10T11:02:23.243Z,85.99
2019-05-10T11:02:51.947Z,84.65
2019-05-10T11:03:51.362Z,85.32
2019-05-10T11:04:51.358Z,85.51
2019-05-10T11:05:51.371Z,85.61
2019-05-10T11:07:08.837Z,85.71
2019-05-10T11:07:51.386Z,85.22
2019-05-10T11:08:51.928Z,85.71
2019-05-10T11:09:55.927Z,85.80
2019-05-10T11:10:51.412Z,85.32
2019-05-10T11:11:51.718Z,86.28
2019-05-10T11:12:51.570Z,85.99
2019-05-10T11:13:58.217Z,84.27
2019-05-10T11:14:51.444Z,84.84
2019-05-10T11:15:51.820Z,85.32
2019-05-10T11:16:52.934Z,85.51
2019-05-10T11:17:51.475Z,85.80
2019-05-10T11:18:52.065Z,85.13
2019-05-10T11:19:51.488Z,83.03
2019-05-10T11:20:53.855Z,84.50
2019-05-10T11:21:51.573Z,84.22
2019-05-10T11:22:53.373Z,83.87
2019-05-10T11:23:51.522Z,83.44
2019-05-10T11:24:59.715Z,84.63
2019-05-10T11:25:56.403Z,82.75
2019-05-10T11:26:51.820Z,82.74
2019-05-10T11:27:53.933Z,81.87
2019-05-10T11:28:51.568Z,80.15
2019-05-10T11:29:54.588Z,77.26
2019-05-10T11:30:51.582Z,74.77
2019-05-10T11:32:11.132Z,77.46
2019-05-10T11:32:51.602Z,77.51
2019-05-10T11:33:56.135Z,78.82
2019-05-10T11:34:51.622Z,79.30
2019-05-10T11:35:51.639Z,79.21
2019-05-10T11:36:51.644Z,79.07
2019-05-10T11:37:51.649Z,79.36
2019-05-10T11:38:56.552Z,79.89
2019-05-10T11:39:51.672Z,81.23
2019-05-10T11:40:51.681Z,80.14
2019-05-10T11:42:00.541Z,81.48
2019-05-10T11:42:51.700Z,83.59
2019-05-10T11:43:51.710Z,85.41
2019-05-10T11:44:54.545Z,85.88
2019-05-10T11:45:51.731Z,85.50
2019-05-10T11:46:51.739Z,85.93
2019-05-10T11:47:56.770Z,86.12
2019-05-10T11:48:51.759Z,85.64
2019-05-10T11:49:51.769Z,84.15
2019-05-10T11:50:51.782Z,83.67
2019-05-10T11:51:54.813Z,82.04
2019-05-10T11:52:51.797Z,81.56
2019-05-10T11:53:55.452Z,83.86
2019-05-10T11:54:51.814Z,84.77
2019-05-10T11:55:51.871Z,83.81
2019-05-10T11:56:52.360Z,83.61
2019-05-10T11:58:01.980Z,80.34
2019-05-10T11:59:04.404Z,76.04
2019-05-10T11:59:52.014Z,75.09
2019-05-10T12:00:56.557Z,71.60
2019-05-10T12:01:57.967Z,70.92
2019-05-10T12:03:12.126Z,69.74
2019-05-10T12:03:51.912Z,65.69
2019-05-10T12:04:52.867Z,59.86
2019-05-10T12:06:03.897Z,60.75
2019-05-10T12:06:51.947Z,61.21
2019-05-10T12:07:54.750Z,56.49
2019-05-10T12:08:59.822Z,53.73
2019-05-10T12:10:03.324Z,51.50
2019-05-10T12:10:56.644Z,52.91
2019-05-10T12:11:55.425Z,52.03
2019-05-10T12:13:56.865Z,49.17
2019-05-10T12:14:53.973Z,48.71
2019-05-10T12:15:52.315Z,47.66
2019-05-10T12:16:54.649Z,44.84
2019-05-10T12:17:58.003Z,47.98
2019-05-10T12:19:17.086Z,49.07
2019-05-10T12:19:56.407Z,47.32
2019-05-10T12:21:08.648Z,48.07
2019-05-10T12:21:56.003Z,48.97
2019-05-10T12:22:52.351Z,50.16
2019-05-10T12:23:56.167Z,49.15
2019-05-10T12:25:17.019Z,49.27
2019-05-10T12:26:05.330Z,49.05
2019-05-10T12:26:58.486Z,47.66
2019-05-10T12:27:18.720Z,47.98
2019-05-10T12:27:52.627Z,50.65
2019-05-10T12:28:52.320Z,54.11
2019-05-10T12:29:59.681Z,55.24
2019-05-10T12:30:52.349Z,56.05
2019-05-10T12:31:55.938Z,56.13
2019-05-10T12:32:56.727Z,58.12
2019-05-10T12:33:52.398Z,56.40
2019-05-10T12:34:56.488Z,57.46
2019-05-10T12:35:52.431Z,56.76
2019-05-10T12:36:52.450Z,57.82
2019-05-10T12:37:54.252Z,56.95
2019-05-10T12:38:52.478Z,58.54
2019-05-10T12:39:53.136Z,59.38
2019-05-10T12:40:52.512Z,58.87
2019-05-10T12:41:53.204Z,60.64
2019-05-10T12:42:52.546Z,63.21
2019-05-10T12:44:02.793Z,61.74
2019-05-10T12:44:55.419Z,64.25
2019-05-10T12:45:52.588Z,65.08
2019-05-10T12:46:54.230Z,66.81
2019-05-10T12:47:52.620Z,64.86
2019-05-10T12:48:52.640Z,67.55
2019-05-10T12:49:53.836Z,66.68
2019-05-10T12:50:58.045Z,64.95
2019-05-10T12:51:52.672Z,63.89
2019-05-10T12:53:03.878Z,62.99
2019-05-10T12:53:52.709Z,64.95
2019-05-10T12:54:52.717Z,62.18
2019-05-10T12:55:52.726Z,59.89